PWSweather.com
Personal Weather Stations
Station Observations

GerenaES 41860

Lat: 37.530965, Lon: -6.150384

Elevation: 120

Station Type: Vantage VUE

http://meteogerena.blogspot.com.es/

High Low Average
Temperature 55.2°F12.9°C 46.6°F8.1°C 49.7°F9.8°C
Dew Point 28.9°F-1.7°C 27.1°F-2.7°C 28.0°F-2.2°C
Winds 7.0 mph 11.3 kmh Calm Calm 3.0 mph SSE4.8 kmh SSE
Wind Gusts 13.0 mph20.9 kmh 2.0 mph3.2 kmh 7.0 mph11.3 kmh
Humidity 48% 35% 43%
Pressure 30.14 in1020.7 mb 30.03 in1016.9 mb -
Precipitation 0.04 in1.0 mm - -
Hour Temp Dew Point Humidity Winds Wind Gusts Pressure Precip Precip Rate Daily Precip Total
06:29 PM 55.2°F12.9°C 28.0°F-2.2°C 35% 5.0 mph S8.0 kmh S 9.0 mph14.5 kmh 30.03 in1016.9 mb 0.04 in1.0 mm 0.08 in2.0 mm 0.04 in1.0 mm
06:30 PM 55.2°F12.9°C 28.0°F-2.2°C 35% 5.0 mph S8.0 kmh S 9.0 mph14.5 kmh 30.03 in1016.9 mb 0.04 in1.0 mm 0.00 in0.0 mm 0.04 in1.0 mm
06:31 PM 55.2°F12.9°C 28.0°F-2.2°C 35% 5.0 mph S8.0 kmh S 11.0 mph17.7 kmh 30.03 in1016.9 mb 0.04 in1.0 mm 0.00 in0.0 mm 0.04 in1.0 mm
06:32 PM 55.2°F12.9°C 28.0°F-2.2°C 35% 5.0 mph S8.0 kmh S 11.0 mph17.7 kmh 30.03 in1016.9 mb 0.04 in1.0 mm 0.00 in0.0 mm 0.04 in1.0 mm
06:33 PM 55.2°F12.9°C 28.0°F-2.2°C 35% 5.0 mph S8.0 kmh S 11.0 mph17.7 kmh 30.03 in1016.9 mb 0.04 in1.0 mm 0.00 in0.0 mm 0.04 in1.0 mm
06:34 PM 55.0°F12.8°C 27.9°F-2.3°C 35% 5.0 mph S8.0 kmh S 11.0 mph17.7 kmh 30.03 in1016.9 mb 0.04 in1.0 mm 0.00 in0.0 mm 0.04 in1.0 mm
06:35 PM 55.0°F12.8°C 27.9°F-2.3°C 35% 5.0 mph S8.0 kmh S 11.0 mph17.7 kmh 30.03 in1016.9 mb 0.04 in1.0 mm 0.00 in0.0 mm 0.04 in1.0 mm
06:36 PM 55.0°F12.8°C 27.9°F-2.3°C 35% 5.0 mph S8.0 kmh S 11.0 mph17.7 kmh 30.03 in1016.9 mb 0.04 in1.0 mm 0.00 in0.0 mm 0.04 in1.0 mm
06:37 PM 55.0°F12.8°C 28.5°F-1.9°C 36% 5.0 mph S8.0 kmh S 11.0 mph17.7 kmh 30.03 in1016.9 mb 0.04 in1.0 mm 0.00 in0.0 mm 0.04 in1.0 mm
06:38 PM 54.9°F12.7°C 28.4°F-2.0°C 36% 5.0 mph S8.0 kmh S 11.0 mph17.7 kmh 30.03 in1016.9 mb 0.04 in1.0 mm 0.00 in0.0 mm 0.04 in1.0 mm
06:39 PM 54.9°F12.7°C 28.4°F-2.0°C 36% 5.0 mph SSE8.0 kmh SSE 11.0 mph17.7 kmh 30.03 in1016.9 mb 0.04 in1.0 mm 0.00 in0.0 mm 0.04 in1.0 mm
06:40 PM 54.7°F12.6°C 28.2°F-2.1°C 36% 5.0 mph SSE8.0 kmh SSE 11.0 mph17.7 kmh 30.03 in1016.9 mb 0.04 in1.0 mm 0.00 in0.0 mm 0.04 in1.0 mm
06:41 PM 54.7°F12.6°C 28.2°F-2.1°C 36% 5.0 mph SSE8.0 kmh SSE 10.0 mph16.1 kmh 30.03 in1016.9 mb 0.04 in1.0 mm 0.00 in0.0 mm 0.04 in1.0 mm
06:42 PM 54.7°F12.6°C 28.2°F-2.1°C 36% 5.0 mph SSE8.0 kmh SSE 9.0 mph14.5 kmh 30.03 in1016.9 mb 0.04 in1.0 mm 0.00 in0.0 mm 0.04 in1.0 mm
06:43 PM 54.5°F12.5°C 28.1°F-2.2°C 36% 5.0 mph SSE8.0 kmh SSE 10.0 mph16.1 kmh 30.03 in1016.9 mb 0.04 in1.0 mm 0.00 in0.0 mm 0.04 in1.0 mm
06:44 PM 54.3°F12.4°C 27.9°F-2.3°C 36% 4.0 mph S6.4 kmh S 10.0 mph16.1 kmh 30.03 in1016.9 mb 0.04 in1.0 mm 0.00 in0.0 mm 0.04 in1.0 mm
06:45 PM 54.3°F12.4°C 27.9°F-2.3°C 36% 4.0 mph S6.4 kmh S 10.0 mph16.1 kmh 30.03 in1016.9 mb 0.04 in1.0 mm 0.00 in0.0 mm 0.04 in1.0 mm
06:46 PM 54.3°F12.4°C 28.6°F-1.9°C 37% 4.0 mph SSE6.4 kmh SSE 10.0 mph16.1 kmh 30.03 in1016.9 mb 0.04 in1.0 mm 0.00 in0.0 mm 0.04 in1.0 mm
06:47 PM 54.1°F12.3°C 28.4°F-2.0°C 37% 4.0 mph SSE6.4 kmh SSE 10.0 mph16.1 kmh 30.03 in1016.9 mb 0.04 in1.0 mm 0.00 in0.0 mm 0.04 in1.0 mm
06:48 PM 54.1°F12.3°C 28.4°F-2.0°C 37% 4.0 mph S6.4 kmh S 10.0 mph16.1 kmh 30.03 in1016.9 mb 0.04 in1.0 mm 0.00 in0.0 mm 0.04 in1.0 mm
06:49 PM 54.1°F12.3°C 28.4°F-2.0°C 37% 4.0 mph S6.4 kmh S 10.0 mph16.1 kmh 30.03 in1016.9 mb 0.04 in1.0 mm 0.00 in0.0 mm 0.04 in1.0 mm
06:50 PM 54.0°F12.2°C 28.3°F-2.1°C 37% 4.0 mph S6.4 kmh S 10.0 mph16.1 kmh 30.03 in1016.9 mb 0.04 in1.0 mm 0.00 in0.0 mm 0.04 in1.0 mm
06:51 PM 54.0°F12.2°C 28.3°F-2.1°C 37% 4.0 mph S6.4 kmh S 10.0 mph16.1 kmh 30.03 in1016.9 mb 0.04 in1.0 mm 0.00 in0.0 mm 0.04 in1.0 mm
06:52 PM 54.0°F12.2°C 28.3°F-2.1°C 37% 4.0 mph SSE6.4 kmh SSE 10.0 mph16.1 kmh 30.03 in1016.9 mb 0.04 in1.0 mm 0.00 in0.0 mm 0.04 in1.0 mm
06:53 PM 54.0°F12.2°C 28.3°F-2.1°C 37% 4.0 mph SSE6.4 kmh SSE 8.0 mph12.9 kmh 30.03 in1016.9 mb 0.04 in1.0 mm 0.00 in0.0 mm 0.04 in1.0 mm
06:54 PM 54.0°F12.2°C 28.3°F-2.1°C 37% 4.0 mph SSE6.4 kmh SSE 7.0 mph11.3 kmh 30.03 in1016.9 mb 0.04 in1.0 mm 0.00 in0.0 mm 0.04 in1.0 mm
06:55 PM 53.8°F12.1°C 28.1°F-2.2°C 37% 4.0 mph SSE6.4 kmh SSE 7.0 mph11.3 kmh 30.03 in1016.9 mb 0.04 in1.0 mm 0.00 in0.0 mm 0.04 in1.0 mm
06:56 PM 53.8°F12.1°C 28.7°F-1.8°C 38% 4.0 mph SSE6.4 kmh SSE 7.0 mph11.3 kmh 30.03 in1016.9 mb 0.04 in1.0 mm 0.00 in0.0 mm 0.04 in1.0 mm
06:57 PM 53.8°F12.1°C 28.7°F-1.8°C 38% 4.0 mph SSE6.4 kmh SSE 7.0 mph11.3 kmh 30.03 in1016.9 mb 0.04 in1.0 mm 0.00 in0.0 mm 0.04 in1.0 mm
06:58 PM 53.6°F12.0°C 28.6°F-1.9°C 38% 3.0 mph SSE4.8 kmh SSE 7.0 mph11.3 kmh 30.03 in1016.9 mb 0.04 in1.0 mm 0.00 in0.0 mm 0.04 in1.0 mm
06:59 PM 53.6°F12.0°C 28.6°F-1.9°C 38% 3.0 mph SSE4.8 kmh SSE 7.0 mph11.3 kmh 30.03 in1016.9 mb 0.04 in1.0 mm 0.00 in0.0 mm 0.04 in1.0 mm
07:00 PM 53.4°F11.9°C 28.4°F-2.0°C 38% 3.0 mph SSE4.8 kmh SSE 6.0 mph9.7 kmh 30.03 in1016.9 mb 0.04 in1.0 mm 0.00 in0.0 mm 0.04 in1.0 mm
07:01 PM 53.4°F11.9°C 28.4°F-2.0°C 38% 3.0 mph SSE4.8 kmh SSE 6.0 mph9.7 kmh 30.03 in1016.9 mb 0.04 in1.0 mm 0.00 in0.0 mm 0.04 in1.0 mm
07:02 PM 53.2°F11.8°C 28.3°F-2.1°C 38% 3.0 mph SE4.8 kmh SE 6.0 mph9.7 kmh 30.03 in1016.9 mb 0.04 in1.0 mm 0.00 in0.0 mm 0.04 in1.0 mm
07:03 PM 53.2°F11.8°C 28.3°F-2.1°C 38% 3.0 mph SE4.8 kmh SE 6.0 mph9.7 kmh 30.03 in1016.9 mb 0.04 in1.0 mm 0.00 in0.0 mm 0.04 in1.0 mm
07:04 PM 53.2°F11.8°C 28.9°F-1.7°C 39% 2.0 mph SE3.2 kmh SE 6.0 mph9.7 kmh 30.04 in1017.3 mb 0.04 in1.0 mm 0.00 in0.0 mm 0.04 in1.0 mm
07:05 PM 53.2°F11.8°C 28.9°F-1.7°C 39% 2.0 mph SE3.2 kmh SE 5.0 mph8.0 kmh 30.03 in1016.9 mb 0.04 in1.0 mm 0.00 in0.0 mm 0.04 in1.0 mm
07:06 PM 53.2°F11.8°C 28.3°F-2.1°C 38% 2.0 mph SE3.2 kmh SE 5.0 mph8.0 kmh 30.04 in1017.3 mb 0.04 in1.0 mm 0.00 in0.0 mm 0.04 in1.0 mm
07:07 PM 53.2°F11.8°C 28.3°F-2.1°C 38% 2.0 mph SE3.2 kmh SE 6.0 mph9.7 kmh 30.04 in1017.3 mb 0.04 in1.0 mm 0.00 in0.0 mm 0.04 in1.0 mm
07:08 PM 53.1°F11.7°C 28.7°F-1.8°C 39% 2.0 mph SE3.2 kmh SE 6.0 mph9.7 kmh 30.04 in1017.3 mb 0.00 in0.0 mm 0.00 in0.0 mm 0.04 in1.0 mm
07:09 PM 53.1°F11.7°C 28.1°F-2.2°C 38% 1.0 mph SE1.6 kmh SE 6.0 mph9.7 kmh 30.04 in1017.3 mb 0.00 in0.0 mm 0.00 in0.0 mm 0.04 in1.0 mm
07:10 PM 53.1°F11.7°C 28.7°F-1.8°C 39% 1.0 mph SE1.6 kmh SE 6.0 mph9.7 kmh 30.04 in1017.3 mb 0.00 in0.0 mm 0.00 in0.0 mm 0.04 in1.0 mm
07:11 PM 53.1°F11.7°C 28.7°F-1.8°C 39% 1.0 mph SE1.6 kmh SE 6.0 mph9.7 kmh 30.04 in1017.3 mb 0.00 in0.0 mm 0.00 in0.0 mm 0.04 in1.0 mm
07:12 PM 52.9°F11.6°C 28.6°F-1.9°C 39% 1.0 mph SE1.6 kmh SE 6.0 mph9.7 kmh 30.04 in1017.3 mb 0.00 in0.0 mm 0.00 in0.0 mm 0.04 in1.0 mm
07:13 PM 52.9°F11.6°C 28.6°F-1.9°C 39% 1.0 mph SE1.6 kmh SE 6.0 mph9.7 kmh 30.04 in1017.3 mb 0.00 in0.0 mm 0.00 in0.0 mm 0.04 in1.0 mm
07:14 PM 52.9°F11.6°C 28.6°F-1.9°C 39% 1.0 mph SE1.6 kmh SE 6.0 mph9.7 kmh 30.04 in1017.3 mb 0.00 in0.0 mm 0.00 in0.0 mm 0.04 in1.0 mm
07:15 PM 52.9°F11.6°C 28.6°F-1.9°C 39% 1.0 mph SE1.6 kmh SE 6.0 mph9.7 kmh 30.04 in1017.3 mb 0.00 in0.0 mm 0.00 in0.0 mm 0.04 in1.0 mm
07:16 PM 52.9°F11.6°C 28.6°F-1.9°C 39% 1.0 mph SE1.6 kmh SE 6.0 mph9.7 kmh 30.04 in1017.3 mb 0.00 in0.0 mm 0.00 in0.0 mm 0.04 in1.0 mm
07:17 PM 52.7°F11.5°C 28.4°F-2.0°C 39% 1.0 mph SE1.6 kmh SE 4.0 mph6.4 kmh 30.04 in1017.3 mb 0.00 in0.0 mm 0.00 in0.0 mm 0.04 in1.0 mm
07:18 PM 52.7°F11.5°C 28.4°F-2.0°C 39% 1.0 mph SE1.6 kmh SE 3.0 mph4.8 kmh 30.05 in1017.6 mb 0.00 in0.0 mm 0.00 in0.0 mm 0.04 in1.0 mm
07:19 PM 52.5°F11.4°C 28.2°F-2.1°C 39% 1.0 mph SE1.6 kmh SE 3.0 mph4.8 kmh 30.04 in1017.3 mb 0.00 in0.0 mm 0.00 in0.0 mm 0.04 in1.0 mm
07:20 PM 52.5°F11.4°C 28.2°F-2.1°C 39% 1.0 mph SE1.6 kmh SE 3.0 mph4.8 kmh 30.05 in1017.6 mb 0.00 in0.0 mm 0.00 in0.0 mm 0.04 in1.0 mm
07:21 PM 52.5°F11.4°C 28.2°F-2.1°C 39% 1.0 mph SE1.6 kmh SE 3.0 mph4.8 kmh 30.05 in1017.6 mb 0.00 in0.0 mm 0.00 in0.0 mm 0.04 in1.0 mm
07:22 PM 52.3°F11.3°C 28.7°F-1.8°C 40% 1.0 mph SE1.6 kmh SE 3.0 mph4.8 kmh 30.05 in1017.6 mb 0.00 in0.0 mm 0.00 in0.0 mm 0.04 in1.0 mm
07:23 PM 52.3°F11.3°C 28.7°F-1.8°C 40% 1.0 mph SE1.6 kmh SE 3.0 mph4.8 kmh 30.05 in1017.6 mb 0.00 in0.0 mm 0.00 in0.0 mm 0.04 in1.0 mm
07:24 PM 52.3°F11.3°C 28.7°F-1.8°C 40% 1.0 mph SE1.6 kmh SE 3.0 mph4.8 kmh 30.05 in1017.6 mb 0.00 in0.0 mm 0.00 in0.0 mm 0.04 in1.0 mm
07:25 PM 52.3°F11.3°C 28.7°F-1.8°C 40% 1.0 mph SE1.6 kmh SE 3.0 mph4.8 kmh 30.05 in1017.6 mb 0.00 in0.0 mm 0.00 in0.0 mm 0.04 in1.0 mm
07:26 PM 52.3°F11.3°C 28.7°F-1.8°C 40% 1.0 mph SE1.6 kmh SE 3.0 mph4.8 kmh 30.05 in1017.6 mb 0.00 in0.0 mm 0.00 in0.0 mm 0.04 in1.0 mm
07:27 PM 52.3°F11.3°C 28.7°F-1.8°C 40% 1.0 mph SE1.6 kmh SE 3.0 mph4.8 kmh 30.05 in1017.6 mb 0.00 in0.0 mm 0.00 in0.0 mm 0.04 in1.0 mm
07:28 PM 52.3°F11.3°C 28.7°F-1.8°C 40% 1.0 mph SE1.6 kmh SE 3.0 mph4.8 kmh 30.05 in1017.6 mb 0.00 in0.0 mm 0.00 in0.0 mm 0.04 in1.0 mm
07:29 PM 52.2°F11.2°C 28.5°F-1.9°C 40% 1.0 mph SE1.6 kmh SE 3.0 mph4.8 kmh 30.05 in1017.6 mb 0.00 in0.0 mm 0.00 in0.0 mm 0.04 in1.0 mm
07:30 PM 52.2°F11.2°C 28.5°F-1.9°C 40% 1.0 mph SE1.6 kmh SE 3.0 mph4.8 kmh 30.05 in1017.6 mb 0.00 in0.0 mm 0.00 in0.0 mm 0.04 in1.0 mm
07:31 PM 52.2°F11.2°C 28.5°F-1.9°C 40% 1.0 mph SE1.6 kmh SE 3.0 mph4.8 kmh 30.05 in1017.6 mb 0.00 in0.0 mm 0.00 in0.0 mm 0.04 in1.0 mm
07:32 PM 52.2°F11.2°C 28.5°F-1.9°C 40% 1.0 mph SE1.6 kmh SE 3.0 mph4.8 kmh 30.05 in1017.6 mb 0.00 in0.0 mm 0.00 in0.0 mm 0.04 in1.0 mm
07:33 PM 52.2°F11.2°C 28.5°F-1.9°C 40% 1.0 mph SE1.6 kmh SE 3.0 mph4.8 kmh 30.05 in1017.6 mb 0.00 in0.0 mm 0.00 in0.0 mm 0.04 in1.0 mm
07:34 PM 52.2°F11.2°C 28.5°F-1.9°C 40% 1.0 mph SE1.6 kmh SE 3.0 mph4.8 kmh 30.05 in1017.6 mb 0.00 in0.0 mm 0.00 in0.0 mm 0.04 in1.0 mm
07:35 PM 52.2°F11.2°C 28.5°F-1.9°C 40% 1.0 mph SE1.6 kmh SE 3.0 mph4.8 kmh 30.05 in1017.6 mb 0.00 in0.0 mm 0.00 in0.0 mm 0.04 in1.0 mm
07:36 PM 52.2°F11.2°C 28.5°F-1.9°C 40% 1.0 mph SE1.6 kmh SE 3.0 mph4.8 kmh 30.05 in1017.6 mb 0.00 in0.0 mm 0.00 in0.0 mm 0.04 in1.0 mm
07:37 PM 52.2°F11.2°C 28.5°F-1.9°C 40% 1.0 mph SE1.6 kmh SE 2.0 mph3.2 kmh 30.05 in1017.6 mb 0.00 in0.0 mm 0.00 in0.0 mm 0.04 in1.0 mm
07:38 PM 52.0°F11.1°C 28.4°F-2.0°C 40% 1.0 mph SE1.6 kmh SE 2.0 mph3.2 kmh 30.06 in1017.9 mb 0.00 in0.0 mm 0.00 in0.0 mm 0.04 in1.0 mm
07:39 PM 52.0°F11.1°C 28.4°F-2.0°C 40% 1.0 mph SE1.6 kmh SE 2.0 mph3.2 kmh 30.05 in1017.6 mb 0.00 in0.0 mm 0.00 in0.0 mm 0.04 in1.0 mm
07:40 PM 52.0°F11.1°C 28.4°F-2.0°C 40% Calm Calm 2.0 mph3.2 kmh 30.06 in1017.9 mb 0.00 in0.0 mm 0.00 in0.0 mm 0.04 in1.0 mm
07:41 PM 52.0°F11.1°C 28.4°F-2.0°C 40% Calm Calm 2.0 mph3.2 kmh 30.06 in1017.9 mb 0.00 in0.0 mm 0.00 in0.0 mm 0.04 in1.0 mm
07:42 PM 52.0°F11.1°C 28.4°F-2.0°C 40% Calm Calm 2.0 mph3.2 kmh 30.06 in1017.9 mb 0.00 in0.0 mm 0.00 in0.0 mm 0.04 in1.0 mm
07:43 PM 52.0°F11.1°C 28.4°F-2.0°C 40% Calm Calm 2.0 mph3.2 kmh 30.06 in1017.9 mb 0.00 in0.0 mm 0.00 in0.0 mm 0.04 in1.0 mm
07:44 PM 52.0°F11.1°C 28.4°F-2.0°C 40% Calm Calm 2.0 mph3.2 kmh 30.06 in1017.9 mb 0.00 in0.0 mm 0.00 in0.0 mm 0.04 in1.0 mm
07:45 PM 52.0°F11.1°C 28.4°F-2.0°C 40% Calm Calm 2.0 mph3.2 kmh 30.06 in1017.9 mb 0.00 in0.0 mm 0.00 in0.0 mm 0.04 in1.0 mm
07:46 PM 52.0°F11.1°C 28.4°F-2.0°C 40% Calm Calm 3.0 mph4.8 kmh 30.06 in1017.9 mb 0.00 in0.0 mm 0.00 in0.0 mm 0.04 in1.0 mm
07:47 PM 52.0°F11.1°C 27.8°F-2.3°C 39% Calm Calm 3.0 mph4.8 kmh 30.06 in1017.9 mb 0.00 in0.0 mm 0.00 in0.0 mm 0.04 in1.0 mm
07:48 PM 52.0°F11.1°C 28.4°F-2.0°C 40% Calm Calm 3.0 mph4.8 kmh 30.06 in1017.9 mb 0.00 in0.0 mm 0.00 in0.0 mm 0.04 in1.0 mm
07:49 PM 52.0°F11.1°C 28.4°F-2.0°C 40% Calm Calm 3.0 mph4.8 kmh 30.06 in1017.9 mb 0.00 in0.0 mm 0.00 in0.0 mm 0.04 in1.0 mm
07:50 PM 52.0°F11.1°C 28.4°F-2.0°C 40% Calm Calm 3.0 mph4.8 kmh 30.06 in1017.9 mb 0.00 in0.0 mm 0.00 in0.0 mm 0.04 in1.0 mm
07:51 PM 51.8°F11.0°C 28.2°F-2.1°C 40% Calm Calm 3.0 mph4.8 kmh 30.06 in1017.9 mb 0.00 in0.0 mm 0.00 in0.0 mm 0.04 in1.0 mm
07:52 PM 51.6°F10.9°C 28.1°F-2.2°C 40% Calm Calm 3.0 mph4.8 kmh 30.06 in1017.9 mb 0.00 in0.0 mm 0.00 in0.0 mm 0.04 in1.0 mm
07:53 PM 51.6°F10.9°C 28.1°F-2.2°C 40% Calm Calm 3.0 mph4.8 kmh 30.06 in1017.9 mb 0.00 in0.0 mm 0.00 in0.0 mm 0.04 in1.0 mm
07:54 PM 51.6°F10.9°C 28.7°F-1.8°C 41% Calm Calm 3.0 mph4.8 kmh 30.07 in1018.3 mb 0.00 in0.0 mm 0.00 in0.0 mm 0.04 in1.0 mm
07:55 PM 51.4°F10.8°C 28.5°F-1.9°C 41% Calm Calm 3.0 mph4.8 kmh 30.07 in1018.3 mb 0.00 in0.0 mm 0.00 in0.0 mm 0.04 in1.0 mm
07:56 PM 51.4°F10.8°C 28.5°F-1.9°C 41% Calm Calm 2.0 mph3.2 kmh 30.07 in1018.3 mb 0.00 in0.0 mm 0.00 in0.0 mm 0.04 in1.0 mm
07:57 PM 51.3°F10.7°C 28.3°F-2.1°C 41% Calm Calm 2.0 mph3.2 kmh 30.07 in1018.3 mb 0.00 in0.0 mm 0.00 in0.0 mm 0.04 in1.0 mm
07:58 PM 51.3°F10.7°C 28.3°F-2.1°C 41% Calm Calm 2.0 mph3.2 kmh 30.07 in1018.3 mb 0.00 in0.0 mm 0.00 in0.0 mm 0.04 in1.0 mm
07:59 PM 51.1°F10.6°C 28.2°F-2.1°C 41% Calm Calm 4.0 mph6.4 kmh 30.07 in1018.3 mb 0.00 in0.0 mm 0.00 in0.0 mm 0.04 in1.0 mm
08:00 PM 51.1°F10.6°C 28.8°F-1.8°C 42% Calm Calm 4.0 mph6.4 kmh 30.07 in1018.3 mb 0.00 in0.0 mm 0.00 in0.0 mm 0.04 in1.0 mm
08:01 PM 50.9°F10.5°C 28.6°F-1.9°C 42% Calm Calm 4.0 mph6.4 kmh 30.07 in1018.3 mb 0.00 in0.0 mm 0.00 in0.0 mm 0.04 in1.0 mm
08:02 PM 50.7°F10.4°C 28.4°F-2.0°C 42% Calm Calm 5.0 mph8.0 kmh 30.07 in1018.3 mb 0.00 in0.0 mm 0.00 in0.0 mm 0.04 in1.0 mm
08:03 PM 50.5°F10.3°C 28.3°F-2.1°C 42% Calm Calm 5.0 mph8.0 kmh 30.07 in1018.3 mb 0.00 in0.0 mm 0.00 in0.0 mm 0.04 in1.0 mm
08:04 PM 50.5°F10.3°C 28.8°F-1.8°C 43% Calm Calm 5.0 mph8.0 kmh 30.07 in1018.3 mb 0.00 in0.0 mm 0.00 in0.0 mm 0.04 in1.0 mm
08:05 PM 50.4°F10.2°C 28.7°F-1.8°C 43% 1.0 mph SSE1.6 kmh SSE 5.0 mph8.0 kmh 30.07 in1018.3 mb 0.00 in0.0 mm 0.00 in0.0 mm 0.04 in1.0 mm
08:06 PM 50.4°F10.2°C 28.7°F-1.8°C 43% 1.0 mph SSE1.6 kmh SSE 5.0 mph8.0 kmh 30.07 in1018.3 mb 0.00 in0.0 mm 0.00 in0.0 mm 0.04 in1.0 mm
08:07 PM 50.2°F10.1°C 28.5°F-1.9°C 43% 1.0 mph SSE1.6 kmh SSE 5.0 mph8.0 kmh 30.07 in1018.3 mb 0.00 in0.0 mm 0.00 in0.0 mm 0.04 in1.0 mm
08:08 PM 50.2°F10.1°C 28.5°F-1.9°C 43% 1.0 mph SSE1.6 kmh SSE 5.0 mph8.0 kmh 30.07 in1018.3 mb 0.00 in0.0 mm 0.00 in0.0 mm 0.04 in1.0 mm
08:09 PM 50.2°F10.1°C 28.5°F-1.9°C 43% 2.0 mph SSE3.2 kmh SSE 5.0 mph8.0 kmh 30.07 in1018.3 mb 0.00 in0.0 mm 0.00 in0.0 mm 0.04 in1.0 mm
08:10 PM 50.0°F10.0°C 28.4°F-2.0°C 43% 2.0 mph SSE3.2 kmh SSE 5.0 mph8.0 kmh 30.07 in1018.3 mb 0.00 in0.0 mm 0.00 in0.0 mm 0.04 in1.0 mm
08:11 PM 49.8°F9.9°C 28.2°F-2.1°C 43% 2.0 mph SSE3.2 kmh SSE 5.0 mph8.0 kmh 30.07 in1018.3 mb 0.00 in0.0 mm 0.00 in0.0 mm 0.04 in1.0 mm
08:12 PM 49.8°F9.9°C 28.8°F-1.8°C 44% 2.0 mph SSE3.2 kmh SSE 5.0 mph8.0 kmh 30.07 in1018.3 mb 0.00 in0.0 mm 0.00 in0.0 mm 0.04 in1.0 mm
08:13 PM 49.8°F9.9°C 28.8°F-1.8°C 44% 2.0 mph SSE3.2 kmh SSE 5.0 mph8.0 kmh 30.08 in1018.6 mb 0.00 in0.0 mm 0.00 in0.0 mm 0.04 in1.0 mm
08:14 PM 49.8°F9.9°C 28.8°F-1.8°C 44% 3.0 mph SSE4.8 kmh SSE 5.0 mph8.0 kmh 30.07 in1018.3 mb 0.00 in0.0 mm 0.00 in0.0 mm 0.04 in1.0 mm
08:15 PM 49.8°F9.9°C 28.8°F-1.8°C 44% 3.0 mph SSE4.8 kmh SSE 5.0 mph8.0 kmh 30.08 in1018.6 mb 0.00 in0.0 mm 0.00 in0.0 mm 0.04 in1.0 mm
08:16 PM 49.8°F9.9°C 28.8°F-1.8°C 44% 3.0 mph SSE4.8 kmh SSE 5.0 mph8.0 kmh 30.08 in1018.6 mb 0.00 in0.0 mm 0.00 in0.0 mm 0.04 in1.0 mm
08:17 PM 49.6°F9.8°C 28.6°F-1.9°C 44% 3.0 mph SSE4.8 kmh SSE 5.0 mph8.0 kmh 30.08 in1018.6 mb 0.00 in0.0 mm 0.00 in0.0 mm 0.04 in1.0 mm
08:18 PM 49.6°F9.8°C 28.6°F-1.9°C 44% 3.0 mph SSE4.8 kmh SSE 5.0 mph8.0 kmh 30.08 in1018.6 mb 0.00 in0.0 mm 0.00 in0.0 mm 0.04 in1.0 mm
08:19 PM 49.6°F9.8°C 28.6°F-1.9°C 44% 3.0 mph SSE4.8 kmh SSE 6.0 mph9.7 kmh 30.08 in1018.6 mb 0.00 in0.0 mm 0.00 in0.0 mm 0.04 in1.0 mm
08:20 PM 49.6°F9.8°C 28.6°F-1.9°C 44% 2.0 mph SSE3.2 kmh SSE 6.0 mph9.7 kmh 30.08 in1018.6 mb 0.00 in0.0 mm 0.00 in0.0 mm 0.04 in1.0 mm
08:21 PM 49.8°F9.9°C 28.2°F-2.1°C 43% 2.0 mph SSE3.2 kmh SSE 6.0 mph9.7 kmh 30.08 in1018.6 mb 0.00 in0.0 mm 0.00 in0.0 mm 0.04 in1.0 mm
08:22 PM 49.8°F9.9°C 28.2°F-2.1°C 43% 2.0 mph SSE3.2 kmh SSE 6.0 mph9.7 kmh 30.08 in1018.6 mb 0.00 in0.0 mm 0.00 in0.0 mm 0.04 in1.0 mm
08:23 PM 49.8°F9.9°C 28.2°F-2.1°C 43% 2.0 mph SSE3.2 kmh SSE 6.0 mph9.7 kmh 30.08 in1018.6 mb 0.00 in0.0 mm 0.00 in0.0 mm 0.04 in1.0 mm
08:24 PM 49.8°F9.9°C 28.2°F-2.1°C 43% 2.0 mph SSE3.2 kmh SSE 6.0 mph9.7 kmh 30.08 in1018.6 mb 0.00 in0.0 mm 0.00 in0.0 mm 0.04 in1.0 mm
08:25 PM 49.8°F9.9°C 28.2°F-2.1°C 43% 2.0 mph SSE3.2 kmh SSE 6.0 mph9.7 kmh 30.08 in1018.6 mb 0.00 in0.0 mm 0.00 in0.0 mm 0.04 in1.0 mm
08:26 PM 49.8°F9.9°C 28.2°F-2.1°C 43% 2.0 mph SSE3.2 kmh SSE 6.0 mph9.7 kmh 30.08 in1018.6 mb 0.00 in0.0 mm 0.00 in0.0 mm 0.04 in1.0 mm
08:27 PM 49.8°F9.9°C 28.2°F-2.1°C 43% 2.0 mph SSE3.2 kmh SSE 6.0 mph9.7 kmh 30.08 in1018.6 mb 0.00 in0.0 mm 0.00 in0.0 mm 0.04 in1.0 mm
08:28 PM 49.6°F9.8°C 28.0°F-2.2°C 43% 2.0 mph SSE3.2 kmh SSE 6.0 mph9.7 kmh 30.08 in1018.6 mb 0.00 in0.0 mm 0.00 in0.0 mm 0.04 in1.0 mm
08:29 PM 49.6°F9.8°C 28.0°F-2.2°C 43% 2.0 mph S3.2 kmh S 5.0 mph8.0 kmh 30.08 in1018.6 mb 0.00 in0.0 mm 0.00 in0.0 mm 0.04 in1.0 mm
08:30 PM 49.6°F9.8°C 28.0°F-2.2°C 43% 2.0 mph S3.2 kmh S 7.0 mph11.3 kmh 30.08 in1018.6 mb 0.00 in0.0 mm 0.00 in0.0 mm 0.04 in1.0 mm
08:31 PM 49.6°F9.8°C 28.0°F-2.2°C 43% 2.0 mph S3.2 kmh S 7.0 mph11.3 kmh 30.08 in1018.6 mb 0.00 in0.0 mm 0.00 in0.0 mm 0.04 in1.0 mm
08:32 PM 49.6°F9.8°C 28.0°F-2.2°C 43% 3.0 mph S4.8 kmh S 7.0 mph11.3 kmh 30.08 in1018.6 mb 0.00 in0.0 mm 0.00 in0.0 mm 0.04 in1.0 mm
08:33 PM 49.6°F9.8°C 28.0°F-2.2°C 43% 3.0 mph S4.8 kmh S 7.0 mph11.3 kmh 30.08 in1018.6 mb 0.00 in0.0 mm 0.00 in0.0 mm 0.04 in1.0 mm
08:34 PM 49.6°F9.8°C 28.0°F-2.2°C 43% 3.0 mph S4.8 kmh S 7.0 mph11.3 kmh 30.08 in1018.6 mb 0.00 in0.0 mm 0.00 in0.0 mm 0.04 in1.0 mm
08:35 PM 49.6°F9.8°C 28.0°F-2.2°C 43% 3.0 mph S4.8 kmh S 7.0 mph11.3 kmh 30.08 in1018.6 mb 0.00 in0.0 mm 0.00 in0.0 mm 0.04 in1.0 mm
08:36 PM 49.6°F9.8°C 28.0°F-2.2°C 43% 3.0 mph S4.8 kmh S 7.0 mph11.3 kmh 30.09 in1019.0 mb 0.00 in0.0 mm 0.00 in0.0 mm 0.04 in1.0 mm
08:37 PM 49.6°F9.8°C 28.0°F-2.2°C 43% 3.0 mph S4.8 kmh S 7.0 mph11.3 kmh 30.08 in1018.6 mb 0.00 in0.0 mm 0.00 in0.0 mm 0.04 in1.0 mm
08:38 PM 49.6°F9.8°C 28.0°F-2.2°C 43% 3.0 mph S4.8 kmh S 7.0 mph11.3 kmh 30.09 in1019.0 mb 0.00 in0.0 mm 0.00 in0.0 mm 0.04 in1.0 mm
08:39 PM 49.6°F9.8°C 27.5°F-2.5°C 42% 3.0 mph S4.8 kmh S 8.0 mph12.9 kmh 30.08 in1018.6 mb 0.00 in0.0 mm 0.00 in0.0 mm 0.04 in1.0 mm
08:40 PM 49.8°F9.9°C 27.6°F-2.4°C 42% 3.0 mph S4.8 kmh S 8.0 mph12.9 kmh 30.08 in1018.6 mb 0.00 in0.0 mm 0.00 in0.0 mm 0.04 in1.0 mm
08:41 PM 49.8°F9.9°C 27.6°F-2.4°C 42% 3.0 mph S4.8 kmh S 8.0 mph12.9 kmh 30.08 in1018.6 mb 0.00 in0.0 mm 0.00 in0.0 mm 0.04 in1.0 mm
08:42 PM 49.8°F9.9°C 27.6°F-2.4°C 42% 3.0 mph S4.8 kmh S 8.0 mph12.9 kmh 30.08 in1018.6 mb 0.00 in0.0 mm 0.00 in0.0 mm 0.04 in1.0 mm
08:43 PM 49.8°F9.9°C 27.6°F-2.4°C 42% 3.0 mph S4.8 kmh S 8.0 mph12.9 kmh 30.08 in1018.6 mb 0.00 in0.0 mm 0.00 in0.0 mm 0.04 in1.0 mm
08:44 PM 49.8°F9.9°C 27.6°F-2.4°C 42% 3.0 mph S4.8 kmh S 8.0 mph12.9 kmh 30.09 in1019.0 mb 0.00 in0.0 mm 0.00 in0.0 mm 0.04 in1.0 mm
08:45 PM 49.8°F9.9°C 27.6°F-2.4°C 42% 3.0 mph S4.8 kmh S 8.0 mph12.9 kmh 30.09 in1019.0 mb 0.00 in0.0 mm 0.00 in0.0 mm 0.04 in1.0 mm
08:46 PM 50.0°F10.0°C 27.8°F-2.3°C 42% 3.0 mph S4.8 kmh S 8.0 mph12.9 kmh 30.09 in1019.0 mb 0.00 in0.0 mm 0.00 in0.0 mm 0.04 in1.0 mm
08:47 PM 50.0°F10.0°C 27.8°F-2.3°C 42% 3.0 mph S4.8 kmh S 8.0 mph12.9 kmh 30.09 in1019.0 mb 0.00 in0.0 mm 0.00 in0.0 mm 0.04 in1.0 mm
08:48 PM 50.2°F10.1°C 27.9°F-2.3°C 42% 4.0 mph S6.4 kmh S 8.0 mph12.9 kmh 30.09 in1019.0 mb 0.00 in0.0 mm 0.00 in0.0 mm 0.04 in1.0 mm
08:49 PM 50.2°F10.1°C 27.4°F-2.6°C 41% 4.0 mph S6.4 kmh S 7.0 mph11.3 kmh 30.09 in1019.0 mb 0.00 in0.0 mm 0.00 in0.0 mm 0.04 in1.0 mm
08:50 PM 50.2°F10.1°C 27.4°F-2.6°C 41% 4.0 mph S6.4 kmh S 7.0 mph11.3 kmh 30.09 in1019.0 mb 0.00 in0.0 mm 0.00 in0.0 mm 0.04 in1.0 mm
08:51 PM 50.4°F10.2°C 27.5°F-2.5°C 41% 4.0 mph S6.4 kmh S 7.0 mph11.3 kmh 30.09 in1019.0 mb 0.00 in0.0 mm 0.00 in0.0 mm 0.04 in1.0 mm
08:52 PM 50.4°F10.2°C 27.5°F-2.5°C 41% 4.0 mph S6.4 kmh S 7.0 mph11.3 kmh 30.09 in1019.0 mb 0.00 in0.0 mm 0.00 in0.0 mm 0.04 in1.0 mm
08:53 PM 50.4°F10.2°C 27.5°F-2.5°C 41% 4.0 mph SSE6.4 kmh SSE 7.0 mph11.3 kmh 30.09 in1019.0 mb 0.00 in0.0 mm 0.00 in0.0 mm 0.04 in1.0 mm
08:54 PM 50.4°F10.2°C 27.5°F-2.5°C 41% 4.0 mph SSE6.4 kmh SSE 7.0 mph11.3 kmh 30.09 in1019.0 mb 0.00 in0.0 mm 0.00 in0.0 mm 0.04 in1.0 mm
08:55 PM 50.4°F10.2°C 27.5°F-2.5°C 41% 4.0 mph SSE6.4 kmh SSE 7.0 mph11.3 kmh 30.09 in1019.0 mb 0.00 in0.0 mm 0.00 in0.0 mm 0.04 in1.0 mm
08:56 PM 50.4°F10.2°C 27.5°F-2.5°C 41% 4.0 mph SSE6.4 kmh SSE 7.0 mph11.3 kmh 30.09 in1019.0 mb 0.00 in0.0 mm 0.00 in0.0 mm 0.04 in1.0 mm
08:57 PM 50.2°F10.1°C 27.4°F-2.6°C 41% 3.0 mph SSE4.8 kmh SSE 7.0 mph11.3 kmh 30.09 in1019.0 mb 0.00 in0.0 mm 0.00 in0.0 mm 0.04 in1.0 mm
08:58 PM 50.2°F10.1°C 27.4°F-2.6°C 41% 3.0 mph SSE4.8 kmh SSE 7.0 mph11.3 kmh 30.09 in1019.0 mb 0.00 in0.0 mm 0.00 in0.0 mm 0.04 in1.0 mm
08:59 PM 50.2°F10.1°C 27.9°F-2.3°C 42% 3.0 mph SSE4.8 kmh SSE 6.0 mph9.7 kmh 30.09 in1019.0 mb 0.00 in0.0 mm 0.00 in0.0 mm 0.04 in1.0 mm
09:00 PM 50.0°F10.0°C 27.8°F-2.3°C 42% 3.0 mph SE4.8 kmh SE 6.0 mph9.7 kmh 30.09 in1019.0 mb 0.00 in0.0 mm 0.00 in0.0 mm 0.04 in1.0 mm
09:01 PM 50.0°F10.0°C 27.8°F-2.3°C 42% 3.0 mph SE4.8 kmh SE 6.0 mph9.7 kmh 30.09 in1019.0 mb 0.00 in0.0 mm 0.00 in0.0 mm 0.04 in1.0 mm
09:02 PM 49.8°F9.9°C 27.6°F-2.4°C 42% 3.0 mph SE4.8 kmh SE 6.0 mph9.7 kmh 30.10 in1019.3 mb 0.00 in0.0 mm 0.00 in0.0 mm 0.04 in1.0 mm
09:03 PM 49.8°F9.9°C 27.6°F-2.4°C 42% 3.0 mph SE4.8 kmh SE 6.0 mph9.7 kmh 30.09 in1019.0 mb 0.00 in0.0 mm 0.00 in0.0 mm 0.04 in1.0 mm
09:04 PM 49.8°F9.9°C 27.6°F-2.4°C 42% 3.0 mph SE4.8 kmh SE 6.0 mph9.7 kmh 30.10 in1019.3 mb 0.00 in0.0 mm 0.00 in0.0 mm 0.04 in1.0 mm
09:05 PM 49.6°F9.8°C 27.5°F-2.5°C 42% 3.0 mph SE4.8 kmh SE 6.0 mph9.7 kmh 30.09 in1019.0 mb 0.00 in0.0 mm 0.00 in0.0 mm 0.04 in1.0 mm
09:06 PM 49.5°F9.7°C 27.9°F-2.3°C 43% 3.0 mph SE4.8 kmh SE 6.0 mph9.7 kmh 30.09 in1019.0 mb 0.00 in0.0 mm 0.00 in0.0 mm 0.04 in1.0 mm
09:07 PM 49.5°F9.7°C 27.9°F-2.3°C 43% 3.0 mph SE4.8 kmh SE 6.0 mph9.7 kmh 30.09 in1019.0 mb 0.00 in0.0 mm 0.00 in0.0 mm 0.04 in1.0 mm
09:08 PM 49.3°F9.6°C 27.7°F-2.4°C 43% 3.0 mph SE4.8 kmh SE 6.0 mph9.7 kmh 30.09 in1019.0 mb 0.00 in0.0 mm 0.00 in0.0 mm 0.04 in1.0 mm
09:09 PM 49.3°F9.6°C 27.7°F-2.4°C 43% 3.0 mph SE4.8 kmh SE 6.0 mph9.7 kmh 30.09 in1019.0 mb 0.00 in0.0 mm 0.00 in0.0 mm 0.04 in1.0 mm
09:10 PM 49.1°F9.5°C 28.1°F-2.2°C 44% 3.0 mph SE4.8 kmh SE 5.0 mph8.0 kmh 30.09 in1019.0 mb 0.00 in0.0 mm 0.00 in0.0 mm 0.04 in1.0 mm
09:11 PM 48.9°F9.4°C 27.9°F-2.3°C 44% 3.0 mph SE4.8 kmh SE 5.0 mph8.0 kmh 30.09 in1019.0 mb 0.00 in0.0 mm 0.00 in0.0 mm 0.04 in1.0 mm
09:12 PM 48.9°F9.4°C 27.9°F-2.3°C 44% 3.0 mph SE4.8 kmh SE 5.0 mph8.0 kmh 30.09 in1019.0 mb 0.00 in0.0 mm 0.00 in0.0 mm 0.04 in1.0 mm
09:13 PM 48.9°F9.4°C 27.9°F-2.3°C 44% 3.0 mph SSE4.8 kmh SSE 5.0 mph8.0 kmh 30.09 in1019.0 mb 0.00 in0.0 mm 0.00 in0.0 mm 0.04 in1.0 mm
09:14 PM 48.9°F9.4°C 27.9°F-2.3°C 44% 3.0 mph SSE4.8 kmh SSE 5.0 mph8.0 kmh 30.09 in1019.0 mb 0.00 in0.0 mm 0.00 in0.0 mm 0.04 in1.0 mm
09:15 PM 48.7°F9.3°C 27.8°F-2.3°C 44% 3.0 mph SE4.8 kmh SE 5.0 mph8.0 kmh 30.09 in1019.0 mb 0.00 in0.0 mm 0.00 in0.0 mm 0.04 in1.0 mm
09:16 PM 48.7°F9.3°C 27.8°F-2.3°C 44% 3.0 mph SE4.8 kmh SE 5.0 mph8.0 kmh 30.10 in1019.3 mb 0.00 in0.0 mm 0.00 in0.0 mm 0.04 in1.0 mm
09:17 PM 48.7°F9.3°C 27.8°F-2.3°C 44% 3.0 mph SSE4.8 kmh SSE 5.0 mph8.0 kmh 30.10 in1019.3 mb 0.00 in0.0 mm 0.00 in0.0 mm 0.04 in1.0 mm
09:18 PM 48.7°F9.3°C 27.8°F-2.3°C 44% 3.0 mph SSE4.8 kmh SSE 5.0 mph8.0 kmh 30.10 in1019.3 mb 0.00 in0.0 mm 0.00 in0.0 mm 0.04 in1.0 mm
09:19 PM 48.7°F9.3°C 27.8°F-2.3°C 44% 3.0 mph SSE4.8 kmh SSE 5.0 mph8.0 kmh 30.10 in1019.3 mb 0.00 in0.0 mm 0.00 in0.0 mm 0.04 in1.0 mm
09:20 PM 48.7°F9.3°C 27.8°F-2.3°C 44% 3.0 mph SSE4.8 kmh SSE 6.0 mph9.7 kmh 30.10 in1019.3 mb 0.00 in0.0 mm 0.00 in0.0 mm 0.04 in1.0 mm
09:21 PM 48.6°F9.2°C 27.6°F-2.4°C 44% 3.0 mph SSE4.8 kmh SSE 6.0 mph9.7 kmh 30.10 in1019.3 mb 0.00 in0.0 mm 0.00 in0.0 mm 0.04 in1.0 mm
09:22 PM 48.6°F9.2°C 27.6°F-2.4°C 44% 3.0 mph SSE4.8 kmh SSE 6.0 mph9.7 kmh 30.10 in1019.3 mb 0.00 in0.0 mm 0.00 in0.0 mm 0.04 in1.0 mm
09:23 PM 48.6°F9.2°C 27.6°F-2.4°C 44% 3.0 mph SSE4.8 kmh SSE 6.0 mph9.7 kmh 30.10 in1019.3 mb 0.00 in0.0 mm 0.00 in0.0 mm 0.04 in1.0 mm
09:24 PM 48.6°F9.2°C 28.2°F-2.1°C 45% 3.0 mph SSE4.8 kmh SSE 6.0 mph9.7 kmh 30.10 in1019.3 mb 0.00 in0.0 mm 0.00 in0.0 mm 0.04 in1.0 mm
09:25 PM 48.6°F9.2°C 28.2°F-2.1°C 45% 3.0 mph SSE4.8 kmh SSE 6.0 mph9.7 kmh 30.10 in1019.3 mb 0.00 in0.0 mm 0.00 in0.0 mm 0.04 in1.0 mm
09:26 PM 48.6°F9.2°C 28.2°F-2.1°C 45% 3.0 mph SSE4.8 kmh SSE 6.0 mph9.7 kmh 30.10 in1019.3 mb 0.00 in0.0 mm 0.00 in0.0 mm 0.04 in1.0 mm
09:27 PM 48.6°F9.2°C 28.2°F-2.1°C 45% 3.0 mph SSE4.8 kmh SSE 6.0 mph9.7 kmh 30.10 in1019.3 mb 0.00 in0.0 mm 0.00 in0.0 mm 0.04 in1.0 mm
09:28 PM 48.4°F9.1°C 28.0°F-2.2°C 45% 3.0 mph SSE4.8 kmh SSE 6.0 mph9.7 kmh 30.10 in1019.3 mb 0.00 in0.0 mm 0.00 in0.0 mm 0.04 in1.0 mm
09:29 PM 48.4°F9.1°C 28.0°F-2.2°C 45% 3.0 mph SSE4.8 kmh SSE 6.0 mph9.7 kmh 30.10 in1019.3 mb 0.00 in0.0 mm 0.00 in0.0 mm 0.04 in1.0 mm
09:30 PM 48.4°F9.1°C 28.0°F-2.2°C 45% 3.0 mph SSE4.8 kmh SSE 6.0 mph9.7 kmh 30.10 in1019.3 mb 0.00 in0.0 mm 0.00 in0.0 mm 0.04 in1.0 mm
09:31 PM 48.6°F9.2°C 28.2°F-2.1°C 45% 3.0 mph SSE4.8 kmh SSE 5.0 mph8.0 kmh 30.10 in1019.3 mb 0.00 in0.0 mm 0.00 in0.0 mm 0.04 in1.0 mm
09:32 PM 48.4°F9.1°C 28.0°F-2.2°C 45% 2.0 mph SSE3.2 kmh SSE 5.0 mph8.0 kmh 30.10 in1019.3 mb 0.00 in0.0 mm 0.00 in0.0 mm 0.04 in1.0 mm
09:33 PM 48.4°F9.1°C 28.0°F-2.2°C 45% 2.0 mph SSE3.2 kmh SSE 5.0 mph8.0 kmh 30.10 in1019.3 mb 0.00 in0.0 mm 0.00 in0.0 mm 0.04 in1.0 mm
09:34 PM 48.4°F9.1°C 28.0°F-2.2°C 45% 2.0 mph SSE3.2 kmh SSE 5.0 mph8.0 kmh 30.10 in1019.3 mb 0.00 in0.0 mm 0.00 in0.0 mm 0.04 in1.0 mm
09:35 PM 48.4°F9.1°C 28.0°F-2.2°C 45% 2.0 mph SSE3.2 kmh SSE 5.0 mph8.0 kmh 30.10 in1019.3 mb 0.00 in0.0 mm 0.00 in0.0 mm 0.04 in1.0 mm
09:36 PM 48.4°F9.1°C 28.0°F-2.2°C 45% 2.0 mph SSE3.2 kmh SSE 5.0 mph8.0 kmh 30.10 in1019.3 mb 0.00 in0.0 mm 0.00 in0.0 mm 0.04 in1.0 mm
09:37 PM 48.4°F9.1°C 28.0°F-2.2°C 45% 2.0 mph SSE3.2 kmh SSE 5.0 mph8.0 kmh 30.10 in1019.3 mb 0.00 in0.0 mm 0.00 in0.0 mm 0.04 in1.0 mm
09:38 PM 48.4°F9.1°C 28.0°F-2.2°C 45% 2.0 mph SSE3.2 kmh SSE 5.0 mph8.0 kmh 30.10 in1019.3 mb 0.00 in0.0 mm 0.00 in0.0 mm 0.04 in1.0 mm
09:39 PM 48.4°F9.1°C 28.0°F-2.2°C 45% 2.0 mph SSE3.2 kmh SSE 5.0 mph8.0 kmh 30.10 in1019.3 mb 0.00 in0.0 mm 0.00 in0.0 mm 0.04 in1.0 mm
09:40 PM 48.4°F9.1°C 28.0°F-2.2°C 45% 2.0 mph SSE3.2 kmh SSE 5.0 mph8.0 kmh 30.10 in1019.3 mb 0.00 in0.0 mm 0.00 in0.0 mm 0.04 in1.0 mm
09:41 PM 48.4°F9.1°C 28.0°F-2.2°C 45% 2.0 mph SSE3.2 kmh SSE 5.0 mph8.0 kmh 30.10 in1019.3 mb 0.00 in0.0 mm 0.00 in0.0 mm 0.04 in1.0 mm
09:42 PM 48.4°F9.1°C 28.0°F-2.2°C 45% 2.0 mph SSE3.2 kmh SSE 5.0 mph8.0 kmh 30.10 in1019.3 mb 0.00 in0.0 mm 0.00 in0.0 mm 0.04 in1.0 mm
09:43 PM 48.4°F9.1°C 28.0°F-2.2°C 45% 2.0 mph SSE3.2 kmh SSE 4.0 mph6.4 kmh 30.11 in1019.6 mb 0.00 in0.0 mm 0.00 in0.0 mm 0.04 in1.0 mm
09:44 PM 48.4°F9.1°C 28.0°F-2.2°C 45% 2.0 mph SSE3.2 kmh SSE 5.0 mph8.0 kmh 30.11 in1019.6 mb 0.00 in0.0 mm 0.00 in0.0 mm 0.04 in1.0 mm
09:45 PM 48.4°F9.1°C 28.0°F-2.2°C 45% 2.0 mph SSE3.2 kmh SSE 5.0 mph8.0 kmh 30.11 in1019.6 mb 0.00 in0.0 mm 0.00 in0.0 mm 0.04 in1.0 mm
09:46 PM 48.4°F9.1°C 28.0°F-2.2°C 45% 2.0 mph SSE3.2 kmh SSE 5.0 mph8.0 kmh 30.11 in1019.6 mb 0.00 in0.0 mm 0.00 in0.0 mm 0.04 in1.0 mm
09:47 PM 48.4°F9.1°C 28.0°F-2.2°C 45% 2.0 mph SSE3.2 kmh SSE 5.0 mph8.0 kmh 30.11 in1019.6 mb 0.00 in0.0 mm 0.00 in0.0 mm 0.04 in1.0 mm
09:48 PM 48.4°F9.1°C 28.0°F-2.2°C 45% 2.0 mph SSE3.2 kmh SSE 5.0 mph8.0 kmh 30.11 in1019.6 mb 0.00 in0.0 mm 0.00 in0.0 mm 0.04 in1.0 mm
09:49 PM 48.4°F9.1°C 28.0°F-2.2°C 45% 2.0 mph SSE3.2 kmh SSE 5.0 mph8.0 kmh 30.11 in1019.6 mb 0.00 in0.0 mm 0.00 in0.0 mm 0.04 in1.0 mm
09:50 PM 48.4°F9.1°C 28.0°F-2.2°C 45% 2.0 mph SSE3.2 kmh SSE 6.0 mph9.7 kmh 30.11 in1019.6 mb 0.00 in0.0 mm 0.00 in0.0 mm 0.04 in1.0 mm
09:51 PM 48.2°F9.0°C 27.8°F-2.3°C 45% 2.0 mph SSE3.2 kmh SSE 6.0 mph9.7 kmh 30.11 in1019.6 mb 0.00 in0.0 mm 0.00 in0.0 mm 0.04 in1.0 mm
09:52 PM 48.0°F8.9°C 27.7°F-2.4°C 45% 2.0 mph SSE3.2 kmh SSE 6.0 mph9.7 kmh 30.11 in1019.6 mb 0.00 in0.0 mm 0.00 in0.0 mm 0.04 in1.0 mm
09:53 PM 48.0°F8.9°C 27.7°F-2.4°C 45% 2.0 mph SSE3.2 kmh SSE 6.0 mph9.7 kmh 30.11 in1019.6 mb 0.00 in0.0 mm 0.00 in0.0 mm 0.04 in1.0 mm
09:54 PM 47.8°F8.8°C 28.0°F-2.2°C 46% 2.0 mph SSE3.2 kmh SSE 6.0 mph9.7 kmh 30.11 in1019.6 mb 0.00 in0.0 mm 0.00 in0.0 mm 0.04 in1.0 mm
09:55 PM 47.7°F8.7°C 27.9°F-2.3°C 46% 2.0 mph SSE3.2 kmh SSE 6.0 mph9.7 kmh 30.11 in1019.6 mb 0.00 in0.0 mm 0.00 in0.0 mm 0.04 in1.0 mm
09:56 PM 47.7°F8.7°C 27.9°F-2.3°C 46% 2.0 mph SSE3.2 kmh SSE 6.0 mph9.7 kmh 30.11 in1019.6 mb 0.00 in0.0 mm 0.00 in0.0 mm 0.04 in1.0 mm
09:57 PM 47.5°F8.6°C 27.7°F-2.4°C 46% 2.0 mph SSE3.2 kmh SSE 6.0 mph9.7 kmh 30.11 in1019.6 mb 0.00 in0.0 mm 0.00 in0.0 mm 0.04 in1.0 mm
09:58 PM 47.5°F8.6°C 27.7°F-2.4°C 46% 2.0 mph SSE3.2 kmh SSE 6.0 mph9.7 kmh 30.11 in1019.6 mb 0.00 in0.0 mm 0.00 in0.0 mm 0.04 in1.0 mm
09:59 PM 47.5°F8.6°C 27.7°F-2.4°C 46% 3.0 mph SSE4.8 kmh SSE 6.0 mph9.7 kmh 30.11 in1019.6 mb 0.00 in0.0 mm 0.00 in0.0 mm 0.04 in1.0 mm
10:00 PM 47.5°F8.6°C 27.7°F-2.4°C 46% 3.0 mph SE4.8 kmh SE 5.0 mph8.0 kmh 30.11 in1019.6 mb 0.00 in0.0 mm 0.00 in0.0 mm 0.04 in1.0 mm
10:01 PM 47.5°F8.6°C 27.7°F-2.4°C 46% 3.0 mph SE4.8 kmh SE 5.0 mph8.0 kmh 30.11 in1019.6 mb 0.00 in0.0 mm 0.00 in0.0 mm 0.04 in1.0 mm
10:02 PM 47.5°F8.6°C 27.7°F-2.4°C 46% 3.0 mph SE4.8 kmh SE 5.0 mph8.0 kmh 30.11 in1019.6 mb 0.00 in0.0 mm 0.00 in0.0 mm 0.04 in1.0 mm
10:03 PM 47.5°F8.6°C 27.7°F-2.4°C 46% 3.0 mph SE4.8 kmh SE 5.0 mph8.0 kmh 30.11 in1019.6 mb 0.00 in0.0 mm 0.00 in0.0 mm 0.04 in1.0 mm
10:04 PM 47.5°F8.6°C 27.7°F-2.4°C 46% 3.0 mph SE4.8 kmh SE 5.0 mph8.0 kmh 30.11 in1019.6 mb 0.00 in0.0 mm 0.00 in0.0 mm 0.04 in1.0 mm
10:05 PM 47.5°F8.6°C 27.7°F-2.4°C 46% 3.0 mph SE4.8 kmh SE 5.0 mph8.0 kmh 30.11 in1019.6 mb 0.00 in0.0 mm 0.00 in0.0 mm 0.04 in1.0 mm
10:06 PM 47.5°F8.6°C 27.7°F-2.4°C 46% 3.0 mph SE4.8 kmh SE 5.0 mph8.0 kmh 30.11 in1019.6 mb 0.00 in0.0 mm 0.00 in0.0 mm 0.04 in1.0 mm
10:07 PM 47.5°F8.6°C 28.2°F-2.1°C 47% 3.0 mph SE4.8 kmh SE 5.0 mph8.0 kmh 30.11 in1019.6 mb 0.00 in0.0 mm 0.00 in0.0 mm 0.04 in1.0 mm
10:08 PM 47.3°F8.5°C 28.1°F-2.2°C 47% 3.0 mph SE4.8 kmh SE 5.0 mph8.0 kmh 30.11 in1019.6 mb 0.00 in0.0 mm 0.00 in0.0 mm 0.04 in1.0 mm
10:09 PM 47.1°F8.4°C 27.9°F-2.3°C 47% 3.0 mph SE4.8 kmh SE 5.0 mph8.0 kmh 30.11 in1019.6 mb 0.00 in0.0 mm 0.00 in0.0 mm 0.04 in1.0 mm
10:10 PM 47.1°F8.4°C 27.9°F-2.3°C 47% 3.0 mph SE4.8 kmh SE 5.0 mph8.0 kmh 30.11 in1019.6 mb 0.00 in0.0 mm 0.00 in0.0 mm 0.04 in1.0 mm
10:11 PM 46.9°F8.3°C 27.7°F-2.4°C 47% 3.0 mph SE4.8 kmh SE 7.0 mph11.3 kmh 30.11 in1019.6 mb 0.00 in0.0 mm 0.00 in0.0 mm 0.04 in1.0 mm
10:12 PM 46.9°F8.3°C 27.7°F-2.4°C 47% 3.0 mph SE4.8 kmh SE 7.0 mph11.3 kmh 30.11 in1019.6 mb 0.00 in0.0 mm 0.00 in0.0 mm 0.04 in1.0 mm
10:13 PM 46.8°F8.2°C 28.1°F-2.2°C 48% 3.0 mph SE4.8 kmh SE 7.0 mph11.3 kmh 30.11 in1019.6 mb 0.00 in0.0 mm 0.00 in0.0 mm 0.04 in1.0 mm
10:14 PM 46.8°F8.2°C 28.1°F-2.2°C 48% 3.0 mph SE4.8 kmh SE 7.0 mph11.3 kmh 30.11 in1019.6 mb 0.00 in0.0 mm 0.00 in0.0 mm 0.04 in1.0 mm
10:15 PM 46.8°F8.2°C 28.1°F-2.2°C 48% 3.0 mph SE4.8 kmh SE 7.0 mph11.3 kmh 30.12 in1020.0 mb 0.00 in0.0 mm 0.00 in0.0 mm 0.04 in1.0 mm
10:16 PM 46.6°F8.1°C 27.9°F-2.3°C 48% 3.0 mph SE4.8 kmh SE 7.0 mph11.3 kmh 30.12 in1020.0 mb 0.00 in0.0 mm 0.00 in0.0 mm 0.04 in1.0 mm
10:17 PM 46.6°F8.1°C 27.9°F-2.3°C 48% 3.0 mph SE4.8 kmh SE 7.0 mph11.3 kmh 30.12 in1020.0 mb 0.00 in0.0 mm 0.00 in0.0 mm 0.04 in1.0 mm
10:18 PM 46.6°F8.1°C 27.9°F-2.3°C 48% 3.0 mph SE4.8 kmh SE 7.0 mph11.3 kmh 30.12 in1020.0 mb 0.00 in0.0 mm 0.00 in0.0 mm 0.04 in1.0 mm
10:19 PM 46.6°F8.1°C 27.9°F-2.3°C 48% 3.0 mph SE4.8 kmh SE 7.0 mph11.3 kmh 30.12 in1020.0 mb 0.00 in0.0 mm 0.00 in0.0 mm 0.04 in1.0 mm
10:20 PM 46.6°F8.1°C 27.9°F-2.3°C 48% 3.0 mph SE4.8 kmh SE 7.0 mph11.3 kmh 30.12 in1020.0 mb 0.00 in0.0 mm 0.00 in0.0 mm 0.04 in1.0 mm
10:21 PM 46.6°F8.1°C 27.9°F-2.3°C 48% 3.0 mph SE4.8 kmh SE 6.0 mph9.7 kmh 30.12 in1020.0 mb 0.00 in0.0 mm 0.00 in0.0 mm 0.04 in1.0 mm
10:22 PM 46.8°F8.2°C 28.1°F-2.2°C 48% 3.0 mph SE4.8 kmh SE 7.0 mph11.3 kmh 30.12 in1020.0 mb 0.00 in0.0 mm 0.00 in0.0 mm 0.04 in1.0 mm
10:23 PM 46.8°F8.2°C 27.6°F-2.4°C 47% 3.0 mph SE4.8 kmh SE 7.0 mph11.3 kmh 30.12 in1020.0 mb 0.00 in0.0 mm 0.00 in0.0 mm 0.04 in1.0 mm
10:24 PM 46.8°F8.2°C 27.6°F-2.4°C 47% 4.0 mph SSE6.4 kmh SSE 7.0 mph11.3 kmh 30.12 in1020.0 mb 0.00 in0.0 mm 0.00 in0.0 mm 0.04 in1.0 mm
10:25 PM 46.8°F8.2°C 27.6°F-2.4°C 47% 4.0 mph SSE6.4 kmh SSE 7.0 mph11.3 kmh 30.12 in1020.0 mb 0.00 in0.0 mm 0.00 in0.0 mm 0.04 in1.0 mm
10:26 PM 46.8°F8.2°C 27.6°F-2.4°C 47% 4.0 mph SSE6.4 kmh SSE 7.0 mph11.3 kmh 30.12 in1020.0 mb 0.00 in0.0 mm 0.00 in0.0 mm 0.04 in1.0 mm
10:27 PM 46.8°F8.2°C 27.6°F-2.4°C 47% 4.0 mph SSE6.4 kmh SSE 7.0 mph11.3 kmh 30.12 in1020.0 mb 0.00 in0.0 mm 0.00 in0.0 mm 0.04 in1.0 mm
10:28 PM 46.8°F8.2°C 27.6°F-2.4°C 47% 4.0 mph SSE6.4 kmh SSE 7.0 mph11.3 kmh 30.12 in1020.0 mb 0.00 in0.0 mm 0.00 in0.0 mm 0.04 in1.0 mm
10:29 PM 46.8°F8.2°C 27.6°F-2.4°C 47% 4.0 mph SSE6.4 kmh SSE 7.0 mph11.3 kmh 30.12 in1020.0 mb 0.00 in0.0 mm 0.00 in0.0 mm 0.04 in1.0 mm
10:30 PM 46.8°F8.2°C 27.6°F-2.4°C 47% 4.0 mph SSE6.4 kmh SSE 7.0 mph11.3 kmh 30.12 in1020.0 mb 0.00 in0.0 mm 0.00 in0.0 mm 0.04 in1.0 mm
10:31 PM 46.8°F8.2°C 27.6°F-2.4°C 47% 4.0 mph SSE6.4 kmh SSE 7.0 mph11.3 kmh 30.12 in1020.0 mb 0.00 in0.0 mm 0.00 in0.0 mm 0.04 in1.0 mm
10:32 PM 46.9°F8.3°C 27.7°F-2.4°C 47% 4.0 mph SSE6.4 kmh SSE 7.0 mph11.3 kmh 30.12 in1020.0 mb 0.00 in0.0 mm 0.00 in0.0 mm 0.04 in1.0 mm
10:33 PM 46.9°F8.3°C 27.7°F-2.4°C 47% 4.0 mph SSE6.4 kmh SSE 7.0 mph11.3 kmh 30.12 in1020.0 mb 0.00 in0.0 mm 0.00 in0.0 mm 0.04 in1.0 mm
10:34 PM 46.9°F8.3°C 27.7°F-2.4°C 47% 4.0 mph SSE6.4 kmh SSE 7.0 mph11.3 kmh 30.12 in1020.0 mb 0.00 in0.0 mm 0.00 in0.0 mm 0.04 in1.0 mm
10:35 PM 46.9°F8.3°C 27.7°F-2.4°C 47% 4.0 mph SSE6.4 kmh SSE 6.0 mph9.7 kmh 30.12 in1020.0 mb 0.00 in0.0 mm 0.00 in0.0 mm 0.04 in1.0 mm
10:36 PM 47.1°F8.4°C 27.9°F-2.3°C 47% 4.0 mph SSE6.4 kmh SSE 6.0 mph9.7 kmh 30.12 in1020.0 mb 0.00 in0.0 mm 0.00 in0.0 mm 0.04 in1.0 mm
10:37 PM 47.1°F8.4°C 27.9°F-2.3°C 47% 4.0 mph SSE6.4 kmh SSE 6.0 mph9.7 kmh 30.12 in1020.0 mb 0.00 in0.0 mm 0.00 in0.0 mm 0.04 in1.0 mm
10:38 PM 47.1°F8.4°C 27.9°F-2.3°C 47% 4.0 mph SSE6.4 kmh SSE 6.0 mph9.7 kmh 30.12 in1020.0 mb 0.00 in0.0 mm 0.00 in0.0 mm 0.04 in1.0 mm
10:39 PM 47.1°F8.4°C 27.9°F-2.3°C 47% 3.0 mph SSE4.8 kmh SSE 7.0 mph11.3 kmh 30.12 in1020.0 mb 0.00 in0.0 mm 0.00 in0.0 mm 0.04 in1.0 mm
10:40 PM 47.1°F8.4°C 27.4°F-2.6°C 46% 3.0 mph SSE4.8 kmh SSE 7.0 mph11.3 kmh 30.12 in1020.0 mb 0.00 in0.0 mm 0.00 in0.0 mm 0.04 in1.0 mm
10:41 PM 47.3°F8.5°C 27.5°F-2.5°C 46% 3.0 mph S4.8 kmh S 7.0 mph11.3 kmh 30.12 in1020.0 mb 0.00 in0.0 mm 0.00 in0.0 mm 0.04 in1.0 mm
10:42 PM 47.5°F8.6°C 27.7°F-2.4°C 46% 3.0 mph S4.8 kmh S 7.0 mph11.3 kmh 30.12 in1020.0 mb 0.00 in0.0 mm 0.00 in0.0 mm 0.04 in1.0 mm
10:43 PM 47.5°F8.6°C 27.7°F-2.4°C 46% 3.0 mph S4.8 kmh S 8.0 mph12.9 kmh 30.12 in1020.0 mb 0.00 in0.0 mm 0.00 in0.0 mm 0.04 in1.0 mm
10:44 PM 47.7°F8.7°C 27.9°F-2.3°C 46% 3.0 mph S4.8 kmh S 8.0 mph12.9 kmh 30.12 in1020.0 mb 0.00 in0.0 mm 0.00 in0.0 mm 0.04 in1.0 mm
10:45 PM 47.7°F8.7°C 27.9°F-2.3°C 46% 3.0 mph S4.8 kmh S 10.0 mph16.1 kmh 30.12 in1020.0 mb 0.00 in0.0 mm 0.00 in0.0 mm 0.04 in1.0 mm
10:46 PM 47.7°F8.7°C 27.3°F-2.6°C 45% 3.0 mph S4.8 kmh S 10.0 mph16.1 kmh 30.12 in1020.0 mb 0.00 in0.0 mm 0.00 in0.0 mm 0.04 in1.0 mm
10:47 PM 47.7°F8.7°C 27.3°F-2.6°C 45% 3.0 mph S4.8 kmh S 10.0 mph16.1 kmh 30.12 in1020.0 mb 0.00 in0.0 mm 0.00 in0.0 mm 0.04 in1.0 mm
10:48 PM 47.8°F8.8°C 27.5°F-2.5°C 45% 3.0 mph S4.8 kmh S 10.0 mph16.1 kmh 30.12 in1020.0 mb 0.00 in0.0 mm 0.00 in0.0 mm 0.04 in1.0 mm
10:49 PM 47.8°F8.8°C 27.5°F-2.5°C 45% 3.0 mph S4.8 kmh S 10.0 mph16.1 kmh 30.12 in1020.0 mb 0.00 in0.0 mm 0.00 in0.0 mm 0.04 in1.0 mm
10:50 PM 47.8°F8.8°C 27.5°F-2.5°C 45% 3.0 mph S4.8 kmh S 10.0 mph16.1 kmh 30.12 in1020.0 mb 0.00 in0.0 mm 0.00 in0.0 mm 0.04 in1.0 mm
10:51 PM 47.8°F8.8°C 27.5°F-2.5°C 45% 4.0 mph S6.4 kmh S 10.0 mph16.1 kmh 30.12 in1020.0 mb 0.00 in0.0 mm 0.00 in0.0 mm 0.04 in1.0 mm
10:52 PM 47.8°F8.8°C 27.5°F-2.5°C 45% 4.0 mph S6.4 kmh S 10.0 mph16.1 kmh 30.12 in1020.0 mb 0.00 in0.0 mm 0.00 in0.0 mm 0.04 in1.0 mm
10:53 PM 47.8°F8.8°C 27.5°F-2.5°C 45% 4.0 mph S6.4 kmh S 10.0 mph16.1 kmh 30.12 in1020.0 mb 0.00 in0.0 mm 0.00 in0.0 mm 0.04 in1.0 mm
10:54 PM 48.0°F8.9°C 27.7°F-2.4°C 45% 4.0 mph S6.4 kmh S 10.0 mph16.1 kmh 30.12 in1020.0 mb 0.00 in0.0 mm 0.00 in0.0 mm 0.04 in1.0 mm
10:55 PM 48.0°F8.9°C 27.7°F-2.4°C 45% 4.0 mph S6.4 kmh S 9.0 mph14.5 kmh 30.12 in1020.0 mb 0.00 in0.0 mm 0.00 in0.0 mm 0.04 in1.0 mm
10:56 PM 48.0°F8.9°C 27.7°F-2.4°C 45% 4.0 mph S6.4 kmh S 10.0 mph16.1 kmh 30.12 in1020.0 mb 0.00 in0.0 mm 0.00 in0.0 mm 0.04 in1.0 mm
10:57 PM 48.0°F8.9°C 27.7°F-2.4°C 45% 4.0 mph S6.4 kmh S 10.0 mph16.1 kmh 30.13 in1020.3 mb 0.00 in0.0 mm 0.00 in0.0 mm 0.04 in1.0 mm
10:58 PM 48.0°F8.9°C 27.7°F-2.4°C 45% 4.0 mph S6.4 kmh S 10.0 mph16.1 kmh 30.13 in1020.3 mb 0.00 in0.0 mm 0.00 in0.0 mm 0.04 in1.0 mm
10:59 PM 48.0°F8.9°C 27.7°F-2.4°C 45% 5.0 mph S8.0 kmh S 10.0 mph16.1 kmh 30.13 in1020.3 mb 0.00 in0.0 mm 0.00 in0.0 mm 0.04 in1.0 mm
11:00 PM 48.0°F8.9°C 27.7°F-2.4°C 45% 5.0 mph S8.0 kmh S 10.0 mph16.1 kmh 30.13 in1020.3 mb 0.00 in0.0 mm 0.00 in0.0 mm 0.04 in1.0 mm
11:01 PM 48.0°F8.9°C 27.7°F-2.4°C 45% 5.0 mph S8.0 kmh S 10.0 mph16.1 kmh 30.12 in1020.0 mb 0.00 in0.0 mm 0.00 in0.0 mm 0.04 in1.0 mm
11:02 PM 48.0°F8.9°C 27.7°F-2.4°C 45% 5.0 mph S8.0 kmh S 10.0 mph16.1 kmh 30.12 in1020.0 mb 0.00 in0.0 mm 0.00 in0.0 mm 0.04 in1.0 mm
11:03 PM 48.0°F8.9°C 27.7°F-2.4°C 45% 5.0 mph S8.0 kmh S 10.0 mph16.1 kmh 30.13 in1020.3 mb 0.00 in0.0 mm 0.00 in0.0 mm 0.04 in1.0 mm
11:04 PM 48.0°F8.9°C 27.7°F-2.4°C 45% 5.0 mph S8.0 kmh S 10.0 mph16.1 kmh 30.12 in1020.0 mb 0.00 in0.0 mm 0.00 in0.0 mm 0.04 in1.0 mm
11:05 PM 48.0°F8.9°C 27.1°F-2.7°C 44% 4.0 mph S6.4 kmh S 10.0 mph16.1 kmh 30.13 in1020.3 mb 0.00 in0.0 mm 0.00 in0.0 mm 0.04 in1.0 mm
11:06 PM 48.0°F8.9°C 27.1°F-2.7°C 44% 4.0 mph S6.4 kmh S 8.0 mph12.9 kmh 30.13 in1020.3 mb 0.00 in0.0 mm 0.00 in0.0 mm 0.04 in1.0 mm
11:07 PM 48.0°F8.9°C 27.1°F-2.7°C 44% 4.0 mph S6.4 kmh S 8.0 mph12.9 kmh 30.13 in1020.3 mb 0.00 in0.0 mm 0.00 in0.0 mm 0.04 in1.0 mm
11:08 PM 48.0°F8.9°C 27.7°F-2.4°C 45% 4.0 mph S6.4 kmh S 8.0 mph12.9 kmh 30.13 in1020.3 mb 0.00 in0.0 mm 0.00 in0.0 mm 0.04 in1.0 mm
11:09 PM 48.0°F8.9°C 27.7°F-2.4°C 45% 4.0 mph S6.4 kmh S 8.0 mph12.9 kmh 30.13 in1020.3 mb 0.00 in0.0 mm 0.00 in0.0 mm 0.04 in1.0 mm
11:10 PM 48.0°F8.9°C 27.7°F-2.4°C 45% 4.0 mph S6.4 kmh S 8.0 mph12.9 kmh 30.13 in1020.3 mb 0.00 in0.0 mm 0.00 in0.0 mm 0.04 in1.0 mm
11:11 PM 47.8°F8.8°C 27.5°F-2.5°C 45% 3.0 mph S4.8 kmh S 8.0 mph12.9 kmh 30.13 in1020.3 mb 0.00 in0.0 mm 0.00 in0.0 mm 0.04 in1.0 mm
11:12 PM 48.0°F8.9°C 27.7°F-2.4°C 45% 3.0 mph S4.8 kmh S 8.0 mph12.9 kmh 30.13 in1020.3 mb 0.00 in0.0 mm 0.00 in0.0 mm 0.04 in1.0 mm
11:13 PM 48.0°F8.9°C 27.7°F-2.4°C 45% 3.0 mph S4.8 kmh S 8.0 mph12.9 kmh 30.13 in1020.3 mb 0.00 in0.0 mm 0.00 in0.0 mm 0.04 in1.0 mm
11:14 PM 48.0°F8.9°C 27.7°F-2.4°C 45% 3.0 mph S4.8 kmh S 8.0 mph12.9 kmh 30.13 in1020.3 mb 0.00 in0.0 mm 0.00 in0.0 mm 0.04 in1.0 mm
11:15 PM 47.8°F8.8°C 27.5°F-2.5°C 45% 3.0 mph S4.8 kmh S 8.0 mph12.9 kmh 30.13 in1020.3 mb 0.00 in0.0 mm 0.00 in0.0 mm 0.04 in1.0 mm
11:16 PM 47.8°F8.8°C 27.5°F-2.5°C 45% 3.0 mph S4.8 kmh S 8.0 mph12.9 kmh 30.13 in1020.3 mb 0.00 in0.0 mm 0.00 in0.0 mm 0.04 in1.0 mm
11:17 PM 47.8°F8.8°C 27.5°F-2.5°C 45% 3.0 mph S4.8 kmh S 8.0 mph12.9 kmh 30.13 in1020.3 mb 0.00 in0.0 mm 0.00 in0.0 mm 0.04 in1.0 mm
11:18 PM 47.8°F8.8°C 27.5°F-2.5°C 45% 3.0 mph S4.8 kmh S 10.0 mph16.1 kmh 30.13 in1020.3 mb 0.00 in0.0 mm 0.00 in0.0 mm 0.04 in1.0 mm
11:19 PM 47.8°F8.8°C 27.5°F-2.5°C 45% 3.0 mph S4.8 kmh S 10.0 mph16.1 kmh 30.13 in1020.3 mb 0.00 in0.0 mm 0.00 in0.0 mm 0.04 in1.0 mm
11:20 PM 47.8°F8.8°C 27.5°F-2.5°C 45% 3.0 mph S4.8 kmh S 10.0 mph16.1 kmh 30.13 in1020.3 mb 0.00 in0.0 mm 0.00 in0.0 mm 0.04 in1.0 mm
11:21 PM 47.8°F8.8°C 27.5°F-2.5°C 45% 3.0 mph S4.8 kmh S 10.0 mph16.1 kmh 30.13 in1020.3 mb 0.00 in0.0 mm 0.00 in0.0 mm 0.04 in1.0 mm
11:22 PM 47.8°F8.8°C 27.5°F-2.5°C 45% 3.0 mph S4.8 kmh S 10.0 mph16.1 kmh 30.13 in1020.3 mb 0.00 in0.0 mm 0.00 in0.0 mm 0.04 in1.0 mm
11:23 PM 47.8°F8.8°C 27.5°F-2.5°C 45% 4.0 mph S6.4 kmh S 10.0 mph16.1 kmh 30.13 in1020.3 mb 0.00 in0.0 mm 0.00 in0.0 mm 0.04 in1.0 mm
11:24 PM 47.7°F8.7°C 27.3°F-2.6°C 45% 4.0 mph S6.4 kmh S 10.0 mph16.1 kmh 30.13 in1020.3 mb 0.00 in0.0 mm 0.00 in0.0 mm 0.04 in1.0 mm
11:25 PM 47.7°F8.7°C 27.3°F-2.6°C 45% 4.0 mph S6.4 kmh S 10.0 mph16.1 kmh 30.13 in1020.3 mb 0.00 in0.0 mm 0.00 in0.0 mm 0.04 in1.0 mm
11:26 PM 47.7°F8.7°C 27.3°F-2.6°C 45% 4.0 mph S6.4 kmh S 10.0 mph16.1 kmh 30.13 in1020.3 mb 0.00 in0.0 mm 0.00 in0.0 mm 0.04 in1.0 mm
11:27 PM 47.7°F8.7°C 27.3°F-2.6°C 45% 4.0 mph S6.4 kmh S 10.0 mph16.1 kmh 30.13 in1020.3 mb 0.00 in0.0 mm 0.00 in0.0 mm 0.04 in1.0 mm
11:28 PM 47.7°F8.7°C 27.3°F-2.6°C 45% 4.0 mph S6.4 kmh S 9.0 mph14.5 kmh 30.13 in1020.3 mb 0.00 in0.0 mm 0.00 in0.0 mm 0.04 in1.0 mm
11:29 PM 47.7°F8.7°C 27.3°F-2.6°C 45% 5.0 mph S8.0 kmh S 8.0 mph12.9 kmh 30.13 in1020.3 mb 0.00 in0.0 mm 0.00 in0.0 mm 0.04 in1.0 mm
11:30 PM 47.7°F8.7°C 27.3°F-2.6°C 45% 5.0 mph S8.0 kmh S 8.0 mph12.9 kmh 30.13 in1020.3 mb 0.00 in0.0 mm 0.00 in0.0 mm 0.04 in1.0 mm
11:31 PM 47.7°F8.7°C 27.3°F-2.6°C 45% 5.0 mph S8.0 kmh S 8.0 mph12.9 kmh 30.13 in1020.3 mb 0.00 in0.0 mm 0.00 in0.0 mm 0.04 in1.0 mm
11:32 PM 47.7°F8.7°C 27.3°F-2.6°C 45% 5.0 mph S8.0 kmh S 9.0 mph14.5 kmh 30.13 in1020.3 mb 0.00 in0.0 mm 0.00 in0.0 mm 0.04 in1.0 mm
11:33 PM 47.7°F8.7°C 27.3°F-2.6°C 45% 5.0 mph S8.0 kmh S 9.0 mph14.5 kmh 30.13 in1020.3 mb 0.00 in0.0 mm 0.00 in0.0 mm 0.04 in1.0 mm
11:34 PM 47.7°F8.7°C 27.3°F-2.6°C 45% 5.0 mph S8.0 kmh S 9.0 mph14.5 kmh 30.13 in1020.3 mb 0.00 in0.0 mm 0.00 in0.0 mm 0.04 in1.0 mm
11:35 PM 47.7°F8.7°C 27.3°F-2.6°C 45% 5.0 mph S8.0 kmh S 9.0 mph14.5 kmh 30.13 in1020.3 mb 0.00 in0.0 mm 0.00 in0.0 mm 0.04 in1.0 mm
11:36 PM 47.7°F8.7°C 27.3°F-2.6°C 45% 5.0 mph S8.0 kmh S 9.0 mph14.5 kmh 30.13 in1020.3 mb 0.00 in0.0 mm 0.00 in0.0 mm 0.04 in1.0 mm
11:37 PM 47.7°F8.7°C 27.9°F-2.3°C 46% 5.0 mph S8.0 kmh S 9.0 mph14.5 kmh 30.13 in1020.3 mb 0.00 in0.0 mm 0.00 in0.0 mm 0.04 in1.0 mm
11:38 PM 47.7°F8.7°C 27.9°F-2.3°C 46% 5.0 mph S8.0 kmh S 9.0 mph14.5 kmh 30.13 in1020.3 mb 0.00 in0.0 mm 0.00 in0.0 mm 0.04 in1.0 mm
11:39 PM 47.7°F8.7°C 27.9°F-2.3°C 46% 5.0 mph S8.0 kmh S 9.0 mph14.5 kmh 30.14 in1020.7 mb 0.00 in0.0 mm 0.00 in0.0 mm 0.04 in1.0 mm
11:40 PM 47.7°F8.7°C 27.9°F-2.3°C 46% 5.0 mph S8.0 kmh S 9.0 mph14.5 kmh 30.13 in1020.3 mb 0.00 in0.0 mm 0.00 in0.0 mm 0.04 in1.0 mm
11:41 PM 47.5°F8.6°C 27.7°F-2.4°C 46% 5.0 mph S8.0 kmh S 11.0 mph17.7 kmh 30.13 in1020.3 mb 0.00 in0.0 mm 0.00 in0.0 mm 0.04 in1.0 mm
11:42 PM 47.5°F8.6°C 27.7°F-2.4°C 46% 5.0 mph S8.0 kmh S 11.0 mph17.7 kmh 30.13 in1020.3 mb 0.00 in0.0 mm 0.00 in0.0 mm 0.04 in1.0 mm
11:43 PM 47.5°F8.6°C 27.7°F-2.4°C 46% 5.0 mph S8.0 kmh S 11.0 mph17.7 kmh 30.13 in1020.3 mb 0.00 in0.0 mm 0.00 in0.0 mm 0.04 in1.0 mm
11:44 PM 47.7°F8.7°C 27.9°F-2.3°C 46% 5.0 mph S8.0 kmh S 11.0 mph17.7 kmh 30.13 in1020.3 mb 0.00 in0.0 mm 0.00 in0.0 mm 0.04 in1.0 mm
11:45 PM 47.5°F8.6°C 27.7°F-2.4°C 46% 5.0 mph S8.0 kmh S 11.0 mph17.7 kmh 30.13 in1020.3 mb 0.00 in0.0 mm 0.00 in0.0 mm 0.04 in1.0 mm
11:46 PM 47.7°F8.7°C 27.9°F-2.3°C 46% 5.0 mph S8.0 kmh S 11.0 mph17.7 kmh 30.13 in1020.3 mb 0.00 in0.0 mm 0.00 in0.0 mm 0.04 in1.0 mm
11:47 PM 47.7°F8.7°C 27.9°F-2.3°C 46% 5.0 mph S8.0 kmh S 12.0 mph19.3 kmh 30.13 in1020.3 mb 0.00 in0.0 mm 0.00 in0.0 mm 0.04 in1.0 mm
11:48 PM 47.7°F8.7°C 27.9°F-2.3°C 46% 5.0 mph S8.0 kmh S 12.0 mph19.3 kmh 30.13 in1020.3 mb 0.00 in0.0 mm 0.00 in0.0 mm 0.04 in1.0 mm
11:49 PM 47.7°F8.7°C 27.9°F-2.3°C 46% 5.0 mph S8.0 kmh S 13.0 mph20.9 kmh 30.13 in1020.3 mb 0.00 in0.0 mm 0.00 in0.0 mm 0.04 in1.0 mm
11:50 PM 47.7°F8.7°C 27.9°F-2.3°C 46% 5.0 mph S8.0 kmh S 13.0 mph20.9 kmh 30.14 in1020.7 mb 0.00 in0.0 mm 0.00 in0.0 mm 0.04 in1.0 mm
11:51 PM 47.7°F8.7°C 27.9°F-2.3°C 46% 6.0 mph S9.7 kmh S 13.0 mph20.9 kmh 30.14 in1020.7 mb 0.00 in0.0 mm 0.00 in0.0 mm 0.04 in1.0 mm
11:52 PM 47.7°F8.7°C 27.9°F-2.3°C 46% 6.0 mph S9.7 kmh S 13.0 mph20.9 kmh 30.14 in1020.7 mb 0.00 in0.0 mm 0.00 in0.0 mm 0.04 in1.0 mm
11:53 PM 47.7°F8.7°C 27.9°F-2.3°C 46% 6.0 mph S9.7 kmh S 13.0 mph20.9 kmh 30.13 in1020.3 mb 0.00 in0.0 mm 0.00 in0.0 mm 0.04 in1.0 mm
11:54 PM 47.7°F8.7°C 27.9°F-2.3°C 46% 6.0 mph S9.7 kmh S 13.0 mph20.9 kmh 30.14 in1020.7 mb 0.00 in0.0 mm 0.00 in0.0 mm 0.04 in1.0 mm
11:55 PM 47.7°F8.7°C 27.9°F-2.3°C 46% 6.0 mph S9.7 kmh S 13.0 mph20.9 kmh 30.14 in1020.7 mb 0.00 in0.0 mm 0.00 in0.0 mm 0.04 in1.0 mm
11:56 PM 47.7°F8.7°C 27.9°F-2.3°C 46% 7.0 mph S11.3 kmh S 13.0 mph20.9 kmh 30.14 in1020.7 mb 0.00 in0.0 mm 0.00 in0.0 mm 0.04 in1.0 mm
11:57 PM 47.7°F8.7°C 27.9°F-2.3°C 46% 7.0 mph S11.3 kmh S 13.0 mph20.9 kmh 30.14 in1020.7 mb 0.00 in0.0 mm 0.00 in0.0 mm 0.04 in1.0 mm
11:58 PM 47.7°F8.7°C 27.9°F-2.3°C 46% 7.0 mph S11.3 kmh S 13.0 mph20.9 kmh 30.14 in1020.7 mb 0.00 in0.0 mm 0.00 in0.0 mm 0.04 in1.0 mm
11:59 PM 47.7°F8.7°C 27.9°F-2.3°C 46% 7.0 mph S11.3 kmh S 11.0 mph17.7 kmh 30.14 in1020.7 mb 0.00 in0.0 mm 0.00 in0.0 mm 0.04 in1.0 mm